sensor_id;sensor_type;location;lat;lon;timestamp;pressure;altitude;pressure_sealevel;temperature;humidity
48862;BME280;34681;49.188;-0.374;2023-12-20T00:01:37;102289.34;;;11.42;65.90
48862;BME280;34681;49.188;-0.374;2023-12-20T00:04:03;102293.53;;;11.35;66.07
48862;BME280;34681;49.188;-0.374;2023-12-20T00:06:29;102290.09;;;11.44;66.08
48862;BME280;34681;49.188;-0.374;2023-12-20T00:08:54;102289.09;;;11.45;65.85
48862;BME280;34681;49.188;-0.374;2023-12-20T00:11:20;102283.56;;;11.34;66.08
48862;BME280;34681;49.188;-0.374;2023-12-20T00:13:45;102286.69;;;11.41;66.15
48862;BME280;34681;49.188;-0.374;2023-12-20T00:16:10;102289.97;;;11.46;66.12
48862;BME280;34681;49.188;-0.374;2023-12-20T00:18:35;102284.09;;;11.63;65.60
48862;BME280;34681;49.188;-0.374;2023-12-20T00:21:01;102293.56;;;11.59;65.70
48862;BME280;34681;49.188;-0.374;2023-12-20T00:23:26;102288.72;;;11.50;65.86
48862;BME280;34681;49.188;-0.374;2023-12-20T00:25:51;102294.88;;;11.53;65.69
48862;BME280;34681;49.188;-0.374;2023-12-20T00:28:17;102293.47;;;11.48;65.63
48862;BME280;34681;49.188;-0.374;2023-12-20T00:30:42;102295.03;;;11.39;65.49
48862;BME280;34681;49.188;-0.374;2023-12-20T00:33:07;102299.63;;;11.39;65.81
48862;BME280;34681;49.188;-0.374;2023-12-20T00:35:33;102298.28;;;11.20;66.34
48862;BME280;34681;49.188;-0.374;2023-12-20T00:37:58;102294.41;;;11.36;66.18
48862;BME280;34681;49.188;-0.374;2023-12-20T00:40:24;102292.53;;;11.23;66.01
48862;BME280;34681;49.188;-0.374;2023-12-20T00:42:49;102283.88;;;11.30;66.33
48862;BME280;34681;49.188;-0.374;2023-12-20T00:45:15;102288.34;;;11.43;66.17
48862;BME280;34681;49.188;-0.374;2023-12-20T00:47:40;102282.00;;;11.67;65.11
48862;BME280;34681;49.188;-0.374;2023-12-20T00:50:06;102281.28;;;11.52;65.51
48862;BME280;34681;49.188;-0.374;2023-12-20T00:52:31;102286.53;;;11.55;65.26
48862;BME280;34681;49.188;-0.374;2023-12-20T00:54:57;102282.94;;;11.42;65.82
48862;BME280;34681;49.188;-0.374;2023-12-20T00:57:22;102285.25;;;11.48;65.37
48862;BME280;34681;49.188;-0.374;2023-12-20T00:59:47;102286.47;;;11.44;65.62
48862;BME280;34681;49.188;-0.374;2023-12-20T01:02:13;102283.53;;;11.58;64.97
48862;BME280;34681;49.188;-0.374;2023-12-20T01:04:38;102284.09;;;11.63;65.16
48862;BME280;34681;49.188;-0.374;2023-12-20T01:07:04;102281.16;;;11.53;65.24
48862;BME280;34681;49.188;-0.374;2023-12-20T01:09:29;102282.69;;;11.58;65.44
48862;BME280;34681;49.188;-0.374;2023-12-20T01:11:54;102278.19;;;11.57;65.42
48862;BME280;34681;49.188;-0.374;2023-12-20T01:14:20;102275.97;;;11.62;65.26
48862;BME280;34681;49.188;-0.374;2023-12-20T01:16:45;102274.53;;;11.45;65.52
48862;BME280;34681;49.188;-0.374;2023-12-20T01:19:10;102274.16;;;11.49;65.93
48862;BME280;34681;49.188;-0.374;2023-12-20T01:21:36;102277.97;;;11.60;65.59
48862;BME280;34681;49.188;-0.374;2023-12-20T01:24:01;102283.97;;;11.65;65.45
48862;BME280;34681;49.188;-0.374;2023-12-20T01:26:27;102281.38;;;11.74;65.13
48862;BME280;34681;49.188;-0.374;2023-12-20T01:28:52;102292.31;;;11.63;65.24
48862;BME280;34681;49.188;-0.374;2023-12-20T01:31:18;102291.97;;;11.44;65.14
48862;BME280;34681;49.188;-0.374;2023-12-20T01:33:43;102284.06;;;11.39;65.45
48862;BME280;34681;49.188;-0.374;2023-12-20T01:36:09;102288.44;;;11.42;65.39
48862;BME280;34681;49.188;-0.374;2023-12-20T01:38:34;102291.28;;;11.40;65.46
48862;BME280;34681;49.188;-0.374;2023-12-20T01:41:00;102295.03;;;11.39;65.27
48862;BME280;34681;49.188;-0.374;2023-12-20T01:43:25;102289.66;;;11.38;65.24
48862;BME280;34681;49.188;-0.374;2023-12-20T01:45:51;102285.81;;;11.40;65.00
48862;BME280;34681;49.188;-0.374;2023-12-20T01:48:16;102277.66;;;11.15;65.45
48862;BME280;34681;49.188;-0.374;2023-12-20T01:50:44;102272.94;;;11.17;65.32
48862;BME280;34681;49.188;-0.374;2023-12-20T01:53:12;102271.44;;;11.00;65.76
48862;BME280;34681;49.188;-0.374;2023-12-20T01:55:39;102267.88;;;10.87;65.93
48862;BME280;34681;49.188;-0.374;2023-12-20T01:58:06;102282.53;;;10.98;65.58
48862;BME280;34681;49.188;-0.374;2023-12-20T02:00:32;102274.66;;;10.81;66.20
48862;BME280;34681;49.188;-0.374;2023-12-20T02:03:01;102283.19;;;10.89;65.83
48862;BME280;34681;49.188;-0.374;2023-12-20T02:05:26;102280.72;;;10.61;66.53
48862;BME280;34681;49.188;-0.374;2023-12-20T02:07:53;102281.69;;;10.60;66.94
48862;BME280;34681;49.188;-0.374;2023-12-20T02:10:18;102279.94;;;10.72;66.62
48862;BME280;34681;49.188;-0.374;2023-12-20T02:12:44;102287.38;;;10.69;66.81
48862;BME280;34681;49.188;-0.374;2023-12-20T02:15:09;102286.31;;;10.59;66.96
48862;BME280;34681;49.188;-0.374;2023-12-20T02:17:36;102288.72;;;10.51;67.41
48862;BME280;34681;49.188;-0.374;2023-12-20T02:20:01;102289.25;;;10.56;67.13
48862;BME280;34681;49.188;-0.374;2023-12-20T02:22:26;102283.75;;;10.56;67.10
48862;BME280;34681;49.188;-0.374;2023-12-20T02:24:52;102281.34;;;10.64;67.11
48862;BME280;34681;49.188;-0.374;2023-12-20T02:27:19;102283.53;;;10.34;67.67
48862;BME280;34681;49.188;-0.374;2023-12-20T02:29:46;102283.34;;;10.62;67.15
48862;BME280;34681;49.188;-0.374;2023-12-20T02:32:12;102285.19;;;10.36;67.80
48862;BME280;34681;49.188;-0.374;2023-12-20T02:34:38;102281.03;;;10.56;67.60
48862;BME280;34681;49.188;-0.374;2023-12-20T02:37:03;102278.84;;;10.49;67.50
48862;BME280;34681;49.188;-0.374;2023-12-20T02:39:28;102281.78;;;10.33;68.11
48862;BME280;34681;49.188;-0.374;2023-12-20T02:41:54;102282.34;;;10.38;67.72
48862;BME280;34681;49.188;-0.374;2023-12-20T02:44:19;102281.78;;;10.33;67.90
48862;BME280;34681;49.188;-0.374;2023-12-20T02:46:44;102280.38;;;10.40;67.94
48862;BME280;34681;49.188;-0.374;2023-12-20T02:49:10;102287.38;;;10.44;67.70
48862;BME280;34681;49.188;-0.374;2023-12-20T02:51:35;102281.25;;;10.40;68.01
48862;BME280;34681;49.188;-0.374;2023-12-20T02:54:03;102279.59;;;10.38;67.76
48862;BME280;34681;49.188;-0.374;2023-12-20T02:56:29;102283.53;;;10.34;68.00
48862;BME280;34681;49.188;-0.374;2023-12-20T02:58:54;102282.75;;;10.32;68.22
48862;BME280;34681;49.188;-0.374;2023-12-20T03:01:20;102294.16;;;10.38;68.21
48862;BME280;34681;49.188;-0.374;2023-12-20T03:03:45;102283.88;;;10.29;68.07
48862;BME280;34681;49.188;-0.374;2023-12-20T03:06:10;102291.13;;;10.43;67.60
48862;BME280;34681;49.188;-0.374;2023-12-20T03:08:35;102276.97;;;10.49;67.55
48862;BME280;34681;49.188;-0.374;2023-12-20T03:11:01;102279.59;;;10.51;67.41
48862;BME280;34681;49.188;-0.374;2023-12-20T03:13:27;102281.47;;;10.50;67.35
48862;BME280;34681;49.188;-0.374;2023-12-20T03:15:52;102273.72;;;10.44;67.43
48862;BME280;34681;49.188;-0.374;2023-12-20T03:18:17;102284.19;;;10.25;68.17
48862;BME280;34681;49.188;-0.374;2023-12-20T03:20:43;102278.56;;;10.13;68.55
48862;BME280;34681;49.188;-0.374;2023-12-20T03:23:09;102269.59;;;10.11;68.58
48862;BME280;34681;49.188;-0.374;2023-12-20T03:25:34;102267.31;;;10.18;68.36
48862;BME280;34681;49.188;-0.374;2023-12-20T03:28:00;102273.50;;;10.07;68.39
48862;BME280;34681;49.188;-0.374;2023-12-20T03:30:25;102271.75;;;10.06;68.46
48862;BME280;34681;49.188;-0.374;2023-12-20T03:32:51;102272.56;;;10.21;68.33
48862;BME280;34681;49.188;-0.374;2023-12-20T03:35:16;102273.03;;;10.40;67.62
48862;BME280;34681;49.188;-0.374;2023-12-20T03:37:41;102275.44;;;10.45;67.49
48862;BME280;34681;49.188;-0.374;2023-12-20T03:40:07;102278.38;;;10.42;67.73
48862;BME280;34681;49.188;-0.374;2023-12-20T03:42:32;102270.84;;;10.33;67.76
48862;BME280;34681;49.188;-0.374;2023-12-20T03:44:57;102273.69;;;10.31;68.26
48862;BME280;34681;49.188;-0.374;2023-12-20T03:47:23;102268.97;;;10.33;68.07
48862;BME280;34681;49.188;-0.374;2023-12-20T03:49:48;102278.97;;;10.34;68.20
48862;BME280;34681;49.188;-0.374;2023-12-20T03:52:13;102277.94;;;10.23;68.28
48862;BME280;34681;49.188;-0.374;2023-12-20T03:54:40;102280.16;;;10.30;68.31
48862;BME280;34681;49.188;-0.374;2023-12-20T03:57:07;102287.91;;;10.49;67.60
48862;BME280;34681;49.188;-0.374;2023-12-20T03:59:37;102285.50;;;10.57;67.08
48862;BME280;34681;49.188;-0.374;2023-12-20T04:02:03;102284.44;;;10.47;67.62
48862;BME280;34681;49.188;-0.374;2023-12-20T04:04:28;102277.84;;;10.37;67.98
48862;BME280;34681;49.188;-0.374;2023-12-20T04:06:54;102276.09;;;10.49;67.97
48862;BME280;34681;49.188;-0.374;2023-12-20T04:09:19;102269.44;;;10.53;67.69
48862;BME280;34681;49.188;-0.374;2023-12-20T04:11:45;102266.78;;;10.64;67.53
48862;BME280;34681;49.188;-0.374;2023-12-20T04:14:10;102275.00;;;10.64;67.48
48862;BME280;34681;49.188;-0.374;2023-12-20T04:16:35;102274.91;;;10.53;67.53
48862;BME280;34681;49.188;-0.374;2023-12-20T04:19:00;102279.69;;;10.75;67.45
48862;BME280;34681;49.188;-0.374;2023-12-20T04:21:26;102276.41;;;10.82;66.95
48862;BME280;34681;49.188;-0.374;2023-12-20T04:23:51;102281.13;;;10.80;67.22
48862;BME280;34681;49.188;-0.374;2023-12-20T04:26:17;102284.84;;;10.79;66.70
48862;BME280;34681;49.188;-0.374;2023-12-20T04:28:42;102293.19;;;10.78;66.54
48862;BME280;34681;49.188;-0.374;2023-12-20T04:31:08;102291.31;;;10.78;66.58
48862;BME280;34681;49.188;-0.374;2023-12-20T04:33:33;102294.28;;;10.62;66.71
48862;BME280;34681;49.188;-0.374;2023-12-20T04:35:59;102285.63;;;10.56;66.88
48862;BME280;34681;49.188;-0.374;2023-12-20T04:38:25;102288.69;;;10.64;66.87
48862;BME280;34681;49.188;-0.374;2023-12-20T04:40:50;102290.25;;;10.43;67.38
48862;BME280;34681;49.188;-0.374;2023-12-20T04:43:16;102283.97;;;10.28;67.91
48862;BME280;34681;49.188;-0.374;2023-12-20T04:45:41;102280.38;;;10.53;67.52
48862;BME280;34681;49.188;-0.374;2023-12-20T04:48:06;102277.31;;;10.57;66.83
48862;BME280;34681;49.188;-0.374;2023-12-20T04:50:32;102290.13;;;10.44;67.18
48862;BME280;34681;49.188;-0.374;2023-12-20T04:52:58;102285.28;;;10.22;67.72
48862;BME280;34681;49.188;-0.374;2023-12-20T04:55:23;102289.38;;;10.15;67.69
48862;BME280;34681;49.188;-0.374;2023-12-20T04:57:48;102286.53;;;10.04;68.07
48862;BME280;34681;49.188;-0.374;2023-12-20T05:00:14;102295.00;;;9.87;68.37
48862;BME280;34681;49.188;-0.374;2023-12-20T05:02:40;102296.38;;;10.06;68.12
48862;BME280;34681;49.188;-0.374;2023-12-20T05:05:06;102292.56;;;10.22;67.53
48862;BME280;34681;49.188;-0.374;2023-12-20T05:07:31;102294.94;;;10.28;67.30
48862;BME280;34681;49.188;-0.374;2023-12-20T05:09:56;102295.47;;;10.33;67.21
48862;BME280;34681;49.188;-0.374;2023-12-20T05:12:22;102301.31;;;10.14;67.37
48862;BME280;34681;49.188;-0.374;2023-12-20T05:14:47;102309.75;;;10.11;67.96
48862;BME280;34681;49.188;-0.374;2023-12-20T05:17:12;102311.88;;;10.33;67.08
48862;BME280;34681;49.188;-0.374;2023-12-20T05:19:38;102315.56;;;10.19;67.62
48862;BME280;34681;49.188;-0.374;2023-12-20T05:22:03;102322.28;;;10.28;67.28
48862;BME280;34681;49.188;-0.374;2023-12-20T05:24:28;102316.34;;;10.34;67.18
48862;BME280;34681;49.188;-0.374;2023-12-20T05:26:54;102315.59;;;10.32;67.39
48862;BME280;34681;49.188;-0.374;2023-12-20T05:29:19;102316.28;;;10.35;67.87
48862;BME280;34681;49.188;-0.374;2023-12-20T05:31:45;102305.34;;;10.35;67.60
48862;BME280;34681;49.188;-0.374;2023-12-20T05:34:10;102314.88;;;10.43;67.60
48862;BME280;34681;49.188;-0.374;2023-12-20T05:36:36;102314.75;;;10.57;67.55
48862;BME280;34681;49.188;-0.374;2023-12-20T05:39:01;102301.75;;;10.60;67.11
48862;BME280;34681;49.188;-0.374;2023-12-20T05:41:28;102300.31;;;10.67;67.35
48862;BME280;34681;49.188;-0.374;2023-12-20T05:43:54;102301.06;;;10.95;66.86
48862;BME280;34681;49.188;-0.374;2023-12-20T05:46:19;102298.31;;;10.82;66.91
48862;BME280;34681;49.188;-0.374;2023-12-20T05:48:44;102295.16;;;10.63;67.50
48862;BME280;34681;49.188;-0.374;2023-12-20T05:51:11;102300.41;;;10.79;67.09
48862;BME280;34681;49.188;-0.374;2023-12-20T05:53:37;102301.84;;;10.84;66.88
48862;BME280;34681;49.188;-0.374;2023-12-20T05:56:03;102293.59;;;10.97;66.25
48862;BME280;34681;49.188;-0.374;2023-12-20T05:58:29;102304.66;;;10.83;66.90
48862;BME280;34681;49.188;-0.374;2023-12-20T06:00:54;102292.53;;;10.87;66.40
48862;BME280;34681;49.188;-0.374;2023-12-20T06:03:20;102297.22;;;10.97;66.06
48862;BME280;34681;49.188;-0.374;2023-12-20T06:05:45;102297.31;;;10.96;66.38
48862;BME280;34681;49.188;-0.374;2023-12-20T06:08:10;102291.94;;;11.07;66.46
48862;BME280;34681;49.188;-0.374;2023-12-20T06:10:36;102302.56;;;11.12;65.89
48862;BME280;34681;49.188;-0.374;2023-12-20T06:13:01;102301.56;;;11.00;66.28
48862;BME280;34681;49.188;-0.374;2023-12-20T06:15:26;102307.50;;;11.07;66.42
48862;BME280;34681;49.188;-0.374;2023-12-20T06:17:52;102316.69;;;11.18;66.01
48862;BME280;34681;49.188;-0.374;2023-12-20T06:20:17;102319.44;;;11.06;66.35
48862;BME280;34681;49.188;-0.374;2023-12-20T06:22:42;102322.53;;;11.01;66.13
48862;BME280;34681;49.188;-0.374;2023-12-20T06:25:08;102323.16;;;11.05;66.25
48862;BME280;34681;49.188;-0.374;2023-12-20T06:27:34;102322.72;;;10.98;66.21
48862;BME280;34681;49.188;-0.374;2023-12-20T06:29:59;102324.41;;;11.01;65.90
48862;BME280;34681;49.188;-0.374;2023-12-20T06:32:24;102322.72;;;10.98;66.19
48862;BME280;34681;49.188;-0.374;2023-12-20T06:34:50;102329.97;;;11.12;65.39
48862;BME280;34681;49.188;-0.374;2023-12-20T06:37:15;102320.91;;;10.86;66.13
48862;BME280;34681;49.188;-0.374;2023-12-20T06:39:40;102324.63;;;10.85;66.02
48862;BME280;34681;49.188;-0.374;2023-12-20T06:42:06;102324.72;;;10.96;65.54
48862;BME280;34681;49.188;-0.374;2023-12-20T06:44:31;102338.19;;;10.86;65.73
48862;BME280;34681;49.188;-0.374;2023-12-20T06:46:57;102344.34;;;10.77;66.28
48862;BME280;34681;49.188;-0.374;2023-12-20T06:49:23;102340.81;;;10.75;66.04
48862;BME280;34681;49.188;-0.374;2023-12-20T06:51:48;102349.03;;;10.88;65.64
48862;BME280;34681;49.188;-0.374;2023-12-20T06:54:14;102343.53;;;10.75;66.22
48862;BME280;34681;49.188;-0.374;2023-12-20T06:56:39;102336.88;;;10.66;66.22
48862;BME280;34681;49.188;-0.374;2023-12-20T06:59:04;102343.88;;;10.71;66.40
48862;BME280;34681;49.188;-0.374;2023-12-20T07:01:30;102340.06;;;10.60;66.75
48862;BME280;34681;49.188;-0.374;2023-12-20T07:03:55;102339.19;;;10.73;66.42
48862;BME280;34681;49.188;-0.374;2023-12-20T07:06:20;102329.66;;;10.53;67.16
48862;BME280;34681;49.188;-0.374;2023-12-20T07:08:46;102321.22;;;10.68;67.13
48862;BME280;34681;49.188;-0.374;2023-12-20T07:11:11;102319.03;;;10.74;66.81
48862;BME280;34681;49.188;-0.374;2023-12-20T07:13:37;102313.44;;;10.75;66.86
48862;BME280;34681;49.188;-0.374;2023-12-20T07:16:02;102309.84;;;10.62;67.49
48862;BME280;34681;49.188;-0.374;2023-12-20T07:18:28;102301.63;;;10.62;67.54
48862;BME280;34681;49.188;-0.374;2023-12-20T07:20:54;102305.13;;;10.64;67.45
48862;BME280;34681;49.188;-0.374;2023-12-20T07:23:20;102301.84;;;10.72;67.37
48862;BME280;34681;49.188;-0.374;2023-12-20T07:25:46;102311.78;;;10.98;66.91
48862;BME280;34681;49.188;-0.374;2023-12-20T07:28:12;102311.13;;;10.94;66.59
48862;BME280;34681;49.188;-0.374;2023-12-20T07:30:37;102308.50;;;10.93;66.39
48862;BME280;34681;49.188;-0.374;2023-12-20T07:33:03;102304.91;;;10.92;66.32
48862;BME280;34681;49.188;-0.374;2023-12-20T07:35:28;102318.38;;;10.95;66.17
48862;BME280;34681;49.188;-0.374;2023-12-20T07:37:53;102301.84;;;10.84;66.43
48862;BME280;34681;49.188;-0.374;2023-12-20T07:40:19;102300.72;;;10.74;66.71
48862;BME280;34681;49.188;-0.374;2023-12-20T07:42:44;102306.75;;;10.54;67.16
48862;BME280;34681;49.188;-0.374;2023-12-20T07:45:09;102309.16;;;10.58;67.14
48862;BME280;34681;49.188;-0.374;2023-12-20T07:47:36;102321.66;;;10.62;66.93
48862;BME280;34681;49.188;-0.374;2023-12-20T07:50:02;102323.72;;;10.59;67.01
48862;BME280;34681;49.188;-0.374;2023-12-20T07:52:29;102320.34;;;10.68;66.89
48862;BME280;34681;49.188;-0.374;2023-12-20T07:54:55;102324.06;;;10.67;66.75
48862;BME280;34681;49.188;-0.374;2023-12-20T07:57:20;102329.44;;;10.68;66.80
48862;BME280;34681;49.188;-0.374;2023-12-20T07:59:46;102337.19;;;10.75;66.75
48862;BME280;34681;49.188;-0.374;2023-12-20T08:02:11;102345.06;;;10.66;66.99
48862;BME280;34681;49.188;-0.374;2023-12-20T08:04:37;102334.47;;;10.75;66.89
48862;BME280;34681;49.188;-0.374;2023-12-20T08:07:03;102344.53;;;10.74;66.86
48862;BME280;34681;49.188;-0.374;2023-12-20T08:09:29;102347.06;;;10.77;66.69
48862;BME280;34681;49.188;-0.374;2023-12-20T08:11:54;102355.59;;;10.60;67.10
48862;BME280;34681;49.188;-0.374;2023-12-20T08:14:20;102358.13;;;10.63;67.12
48862;BME280;34681;49.188;-0.374;2023-12-20T08:16:45;102349.91;;;10.88;66.60
48862;BME280;34681;49.188;-0.374;2023-12-20T08:19:34;102351.78;;;10.88;66.48
48862;BME280;34681;49.188;-0.374;2023-12-20T08:21:58;102354.84;;;10.71;66.64
48862;BME280;34681;49.188;-0.374;2023-12-20T08:24:23;102349.91;;;10.88;66.42
48862;BME280;34681;49.188;-0.374;2023-12-20T08:26:49;102348.50;;;10.95;66.19
48862;BME280;34681;49.188;-0.374;2023-12-20T08:29:14;102350.34;;;10.95;66.46
48862;BME280;34681;49.188;-0.374;2023-12-20T08:31:39;102351.22;;;10.95;66.50
48862;BME280;34681;49.188;-0.374;2023-12-20T08:34:05;102358.66;;;11.06;66.27
48862;BME280;34681;49.188;-0.374;2023-12-20T08:36:30;102358.66;;;11.06;66.07
48862;BME280;34681;49.188;-0.374;2023-12-20T08:38:56;102364.16;;;11.19;65.94
48862;BME280;34681;49.188;-0.374;2023-12-20T08:41:21;102367.41;;;11.24;66.04
48862;BME280;34681;49.188;-0.374;2023-12-20T08:43:46;102372.81;;;11.25;66.03
48862;BME280;34681;49.188;-0.374;2023-12-20T08:46:13;102361.84;;;11.13;66.18
48862;BME280;34681;49.188;-0.374;2023-12-20T08:48:39;102364.91;;;11.21;66.32
48862;BME280;34681;49.188;-0.374;2023-12-20T08:51:05;102359.19;;;11.37;66.19
48862;BME280;34681;49.188;-0.374;2023-12-20T08:53:32;102352.47;;;11.77;65.58
48862;BME280;34681;49.188;-0.374;2023-12-20T08:55:58;102350.25;;;11.95;65.51
48862;BME280;34681;49.188;-0.374;2023-12-20T08:58:26;102345.75;;;12.18;64.77
48862;BME280;34681;49.188;-0.374;2023-12-20T09:00:51;102334.97;;;12.15;64.82
48862;BME280;34681;49.188;-0.374;2023-12-20T09:03:17;102331.47;;;12.13;64.83
48862;BME280;34681;49.188;-0.374;2023-12-20T09:05:42;102334.63;;;12.20;64.65
48862;BME280;34681;49.188;-0.374;2023-12-20T09:08:07;102335.78;;;12.28;64.57
48862;BME280;34681;49.188;-0.374;2023-12-20T09:10:35;102342.69;;;12.45;63.93
48862;BME280;34681;49.188;-0.374;2023-12-20T09:13:00;102333.78;;;12.30;64.44
48862;BME280;34681;49.188;-0.374;2023-12-20T09:15:26;102334.72;;;12.42;64.37
48862;BME280;34681;49.188;-0.374;2023-12-20T09:17:52;102334.25;;;12.24;64.61
48862;BME280;34681;49.188;-0.374;2023-12-20T09:20:18;102340.09;;;12.08;64.66
48862;BME280;34681;49.188;-0.374;2023-12-20T09:22:43;102342.63;;;12.23;64.29
48862;BME280;34681;49.188;-0.374;2023-12-20T09:25:09;102342.34;;;12.15;64.57
48862;BME280;34681;49.188;-0.374;2023-12-20T09:27:35;102340.69;;;12.01;64.79
48862;BME280;34681;49.188;-0.374;2023-12-20T09:30:01;102342.75;;;11.97;64.68
48862;BME280;34681;49.188;-0.374;2023-12-20T09:32:26;102348.50;;;11.94;65.17
48862;BME280;34681;49.188;-0.374;2023-12-20T09:34:51;102343.00;;;11.94;64.84
48862;BME280;34681;49.188;-0.374;2023-12-20T09:37:17;102354.81;;;11.84;65.22
48862;BME280;34681;49.188;-0.374;2023-12-20T09:39:42;102343.63;;;11.98;65.13
48862;BME280;34681;49.188;-0.374;2023-12-20T09:42:07;102342.91;;;12.07;65.05
48862;BME280;34681;49.188;-0.374;2023-12-20T09:44:33;102331.44;;;12.02;65.62
48862;BME280;34681;49.188;-0.374;2023-12-20T09:47:03;102341.03;;;12.31;65.28
48862;BME280;34681;49.188;-0.374;2023-12-20T09:49:29;102330.16;;;12.76;64.54
48862;BME280;34681;49.188;-0.374;2023-12-20T09:51:55;102336.81;;;12.85;64.74
48862;BME280;34681;49.188;-0.374;2023-12-20T09:54:22;102336.84;;;13.30;63.47
48862;BME280;34681;49.188;-0.374;2023-12-20T09:56:48;102348.84;;;13.29;63.54
48862;BME280;34681;49.188;-0.374;2023-12-20T09:59:13;102347.69;;;13.31;63.96
48862;BME280;34681;49.188;-0.374;2023-12-20T10:01:42;102354.06;;;13.65;62.38
48862;BME280;34681;49.188;-0.374;2023-12-20T10:04:09;102368.56;;;13.45;63.09
48862;BME280;34681;49.188;-0.374;2023-12-20T10:06:40;102362.06;;;13.46;63.08
48862;BME280;34681;49.188;-0.374;2023-12-20T10:09:06;102359.72;;;13.41;63.59
48862;BME280;34681;49.188;-0.374;2023-12-20T10:11:32;102371.31;;;13.45;63.76
48862;BME280;34681;49.188;-0.374;2023-12-20T10:14:01;102357.44;;;13.46;63.82
48862;BME280;34681;49.188;-0.374;2023-12-20T10:16:27;102363.81;;;13.58;63.56
48862;BME280;34681;49.188;-0.374;2023-12-20T10:18:55;102357.75;;;13.87;63.08
48862;BME280;34681;49.188;-0.374;2023-12-20T10:21:25;102366.22;;;13.95;63.12
48862;BME280;34681;49.188;-0.374;2023-12-20T10:23:57;102352.00;;;13.78;63.29
48862;BME280;34681;49.188;-0.374;2023-12-20T10:26:25;102344.13;;;13.85;63.52
48862;BME280;34681;49.188;-0.374;2023-12-20T10:28:54;102350.25;;;13.77;63.99
48862;BME280;34681;49.188;-0.374;2023-12-20T10:31:33;102338.84;;;13.93;63.69
48862;BME280;34681;49.188;-0.374;2023-12-20T10:34:01;102348.19;;;14.02;63.50
48862;BME280;34681;49.188;-0.374;2023-12-20T10:36:28;102341.75;;;14.13;63.54
48862;BME280;34681;49.188;-0.374;2023-12-20T10:38:54;102343.25;;;14.17;63.24
48862;BME280;34681;49.188;-0.374;2023-12-20T10:41:28;102336.41;;;14.11;63.30
48862;BME280;34681;49.188;-0.374;2023-12-20T10:43:56;102328.78;;;14.03;63.62
48862;BME280;34681;49.188;-0.374;2023-12-20T10:46:23;102328.09;;;13.90;63.97
48862;BME280;34681;49.188;-0.374;2023-12-20T10:48:53;102338.19;;;14.01;63.89
48862;BME280;34681;49.188;-0.374;2023-12-20T10:51:20;102332.84;;;14.20;63.78
48862;BME280;34681;49.188;-0.374;2023-12-20T10:53:47;102325.00;;;14.16;63.38
48862;BME280;34681;49.188;-0.374;2023-12-20T10:56:15;102330.00;;;14.43;63.19
48862;BME280;34681;49.188;-0.374;2023-12-20T10:58:42;102323.00;;;14.39;63.24
48862;BME280;34681;49.188;-0.374;2023-12-20T11:01:12;102320.63;;;14.45;63.22
48862;BME280;34681;49.188;-0.374;2023-12-20T11:03:38;102319.75;;;14.13;63.91
48862;BME280;34681;49.188;-0.374;2023-12-20T11:06:56;102315.16;;;14.34;63.51
48862;BME280;34681;49.188;-0.374;2023-12-20T11:14:20;102295.56;;;15.00;62.50
48862;BME280;34681;49.188;-0.374;2023-12-20T11:16:47;102307.97;;;14.64;63.15
48862;BME280;34681;49.188;-0.374;2023-12-20T11:19:12;102294.69;;;14.69;63.31
48862;BME280;34681;49.188;-0.374;2023-12-20T11:21:41;102291.19;;;14.67;63.35
48862;BME280;34681;49.188;-0.374;2023-12-20T11:24:06;102298.84;;;14.63;63.33
48862;BME280;34681;49.188;-0.374;2023-12-20T11:26:32;102290.00;;;14.59;63.21
48862;BME280;34681;49.188;-0.374;2023-12-20T11:31:57;102290.28;;;14.24;64.21
48862;BME280;34681;49.188;-0.374;2023-12-20T11:34:27;102293.28;;;14.53;64.23
48862;BME280;34681;49.188;-0.374;2023-12-20T11:37:02;102274.63;;;14.57;63.86
48862;BME280;34681;49.188;-0.374;2023-12-20T11:39:28;102281.66;;;14.50;64.26
48862;BME280;34681;49.188;-0.374;2023-12-20T11:41:55;102276.41;;;14.68;63.61
48862;BME280;34681;49.188;-0.374;2023-12-20T11:44:21;102275.94;;;14.42;64.42
48862;BME280;34681;49.188;-0.374;2023-12-20T11:46:46;102274.50;;;14.26;64.49
48862;BME280;34681;49.188;-0.374;2023-12-20T11:49:12;102267.47;;;14.33;64.26
48862;BME280;34681;49.188;-0.374;2023-12-20T11:51:41;102268.63;;;14.52;64.23
48862;BME280;34681;49.188;-0.374;2023-12-20T11:54:06;102265.91;;;14.82;63.71
48862;BME280;34681;49.188;-0.374;2023-12-20T11:56:32;102266.34;;;14.87;63.48
48862;BME280;34681;49.188;-0.374;2023-12-20T11:58:57;102257.16;;;15.08;63.24
48862;BME280;34681;49.188;-0.374;2023-12-20T12:01:23;102256.91;;;15.21;62.88
48862;BME280;34681;49.188;-0.374;2023-12-20T12:04:02;102253.41;;;14.78;63.26
48862;BME280;34681;49.188;-0.374;2023-12-20T12:06:27;102247.22;;;14.44;63.76
48862;BME280;34681;49.188;-0.374;2023-12-20T12:08:54;102239.56;;;14.06;64.92
48862;BME280;34681;49.188;-0.374;2023-12-20T12:11:19;102236.78;;;14.59;64.04
48862;BME280;34681;49.188;-0.374;2023-12-20T12:13:45;102231.50;;;14.77;63.90
48862;BME280;34681;49.188;-0.374;2023-12-20T12:16:10;102226.50;;;14.92;63.98
48862;BME280;34681;49.188;-0.374;2023-12-20T12:18:36;102217.00;;;15.15;63.51
48862;BME280;34681;49.188;-0.374;2023-12-20T12:21:02;102212.78;;;15.21;63.06
48862;BME280;34681;49.188;-0.374;2023-12-20T12:23:27;102217.34;;;15.51;62.86
48862;BME280;34681;49.188;-0.374;2023-12-20T12:25:54;102222.25;;;15.47;62.81
48862;BME280;34681;49.188;-0.374;2023-12-20T12:28:20;102229.09;;;15.53;62.60
48862;BME280;34681;49.188;-0.374;2023-12-20T12:30:58;102231.53;;;15.27;62.90
48862;BME280;34681;49.188;-0.374;2023-12-20T12:33:25;102219.00;;;14.73;64.14
48862;BME280;34681;49.188;-0.374;2023-12-20T12:35:51;102232.13;;;14.59;64.71
48862;BME280;34681;49.188;-0.374;2023-12-20T12:38:20;102219.19;;;14.50;64.70
48862;BME280;34681;49.188;-0.374;2023-12-20T12:40:45;102214.59;;;14.60;64.72
48862;BME280;34681;49.188;-0.374;2023-12-20T12:43:10;102219.78;;;14.84;64.12